RZO233 LPLA-KBOS
Flight info
| Callsign | RZO233 |
|---|---|
| Flight time | N/A |
| Altitude | 34000 |
| Route | SIPRU DCT 40N030W 43N040W 44N050W DCT BOBTU DCT JAROM DCT LOMPI/N0459F340 N56G BRADD DCT EURRO OOSHN5 |
| Aircraft | A21N/M-SDE2E3FGHIRWXY/LB1 |
Departure
| Time | 2026-04-23 15:35 |
|---|---|
| Airport | Lajes Airport (LPLA) |
Arrival
| Time | N/A |
|---|---|
| Airport | Boston Logan International Airport (KBOS) |
| Time | Latitude | Longitude | Altitude | Speed | Heading |
|---|---|---|---|---|---|
| 2026-04-23 15:15 | 38.75542 | -27.08741 | 156 ft | 0 kts | 320° |
| 2026-04-23 15:16 | 38.75542 | -27.08740 | 156 ft | 0 kts | 320° |
| 2026-04-23 15:22 | 38.75541 | -27.08740 | 156 ft | 0 kts | 320° |
| 2026-04-23 15:24 | 38.75541 | -27.08739 | 183 ft | 0 kts | 320° |
| 2026-04-23 15:30 | 38.75547 | -27.08746 | 183 ft | 4 kts | 320° |
| 2026-04-23 15:30 | 38.75583 | -27.08764 | 183 ft | 8 kts | 22° |
| 2026-04-23 15:31 | 38.75576 | -27.08685 | 183 ft | 16 kts | 137° |
| 2026-04-23 15:31 | 38.75482 | -27.08591 | 183 ft | 18 kts | 140° |
| 2026-04-23 15:31 | 38.75495 | -27.08456 | 183 ft | 18 kts | 50° |
| 2026-04-23 15:31 | 38.75598 | -27.08463 | 185 ft | 19 kts | 321° |
| 2026-04-23 15:32 | 38.75704 | -27.08457 | 184 ft | 20 kts | 50° |
| 2026-04-23 15:32 | 38.75686 | -27.08316 | 183 ft | 20 kts | 140° |
| 2026-04-23 15:32 | 38.75576 | -27.08199 | 183 ft | 21 kts | 141° |
| 2026-04-23 15:32 | 38.75461 | -27.08081 | 184 ft | 22 kts | 141° |
| 2026-04-23 15:33 | 38.75348 | -27.08084 | 183 ft | 21 kts | 232° |
| 2026-04-23 15:33 | 38.75337 | -27.08195 | 194 ft | 0 kts | 340° |
| 2026-04-23 15:33 | 38.75351 | -27.08205 | 185 ft | 6 kts | 322° |
| 2026-04-23 15:33 | 38.75356 | -27.08211 | 186 ft | 0 kts | 320° |
| 2026-04-23 15:34 | 38.75494 | -27.08354 | 183 ft | 61 kts | 320° |
| 2026-04-23 15:34 | 38.75986 | -27.08872 | 191 ft | 119 kts | 321° |
| 2026-04-23 15:34 | 38.76760 | -27.09678 | 207 ft | 163 kts | 316° |
| 2026-04-23 15:35 | 38.77682 | -27.10588 | 625 ft | 172 kts | 319° |
| 2026-04-23 15:35 | 38.78707 | -27.11510 | 1119 ft | 188 kts | 320° |
| 2026-04-23 15:35 | 38.79859 | -27.12471 | 1631 ft | 211 kts | 320° |
| 2026-04-23 15:35 | 38.81059 | -27.13661 | 2207 ft | 220 kts | 316° |
| 2026-04-23 15:36 | 38.82104 | -27.15057 | 3057 ft | 217 kts | 304° |
| 2026-04-23 15:36 | 38.82994 | -27.16600 | 3870 ft | 219 kts | 301° |
| 2026-04-23 15:36 | 38.83839 | -27.18232 | 4676 ft | 221 kts | 299° |
| 2026-04-23 15:36 | 38.84681 | -27.19897 | 5498 ft | 224 kts | 300° |
| 2026-04-23 15:37 | 38.85522 | -27.21595 | 6285 ft | 227 kts | 299° |
| 2026-04-23 15:37 | 38.86382 | -27.23353 | 6830 ft | 241 kts | 299° |
| 2026-04-23 15:37 | 38.87291 | -27.25229 | 7387 ft | 253 kts | 299° |
| 2026-04-23 15:37 | 38.88234 | -27.27171 | 8059 ft | 260 kts | 299° |
| 2026-04-23 15:38 | 38.89187 | -27.29125 | 8852 ft | 262 kts | 299° |
| 2026-04-23 15:38 | 38.90159 | -27.31121 | 9639 ft | 266 kts | 299° |
| 2026-04-23 15:38 | 38.91151 | -27.33174 | 10185 ft | 278 kts | 299° |
| 2026-04-23 15:38 | 38.92208 | -27.35358 | 10465 ft | 298 kts | 300° |
| 2026-04-23 15:39 | 38.93324 | -27.37666 | 11002 ft | 308 kts | 300° |
| 2026-04-23 15:39 | 38.94466 | -27.40018 | 11700 ft | 312 kts | 300° |
| 2026-04-23 15:39 | 38.95617 | -27.42393 | 12415 ft | 315 kts | 301° |
| 2026-04-23 15:39 | 38.96784 | -27.44799 | 13175 ft | 318 kts | 301° |
| 2026-04-23 15:40 | 38.97942 | -27.47196 | 13868 ft | 321 kts | 301° |
| 2026-04-23 15:40 | 38.99117 | -27.49633 | 14547 ft | 322 kts | 301° |
| 2026-04-23 15:40 | 39.00298 | -27.52088 | 15239 ft | 323 kts | 301° |
| 2026-04-23 15:40 | 39.01478 | -27.54548 | 15924 ft | 325 kts | 301° |
| 2026-04-23 15:41 | 39.02670 | -27.57030 | 16588 ft | 327 kts | 302° |
| 2026-04-23 15:41 | 39.03872 | -27.59524 | 17249 ft | 329 kts | 302° |
| 2026-04-23 15:41 | 39.05077 | -27.62025 | 17905 ft | 331 kts | 302° |
| 2026-04-23 15:41 | 39.06290 | -27.64551 | 18480 ft | 332 kts | 302° |
| 2026-04-23 15:42 | 39.07503 | -27.67081 | 19054 ft | 333 kts | 302° |
| 2026-04-23 15:42 | 39.08729 | -27.69624 | 19621 ft | 334 kts | 302° |
| 2026-04-23 15:42 | 39.09941 | -27.72143 | 20186 ft | 336 kts | 302° |
| 2026-04-23 15:42 | 39.11161 | -27.74704 | 20728 ft | 337 kts | 302° |
| 2026-04-23 15:43 | 39.12391 | -27.77284 | 21278 ft | 338 kts | 302° |
| 2026-04-23 15:43 | 39.13626 | -27.79859 | 21814 ft | 339 kts | 302° |
| 2026-04-23 15:43 | 39.14865 | -27.82455 | 22379 ft | 340 kts | 302° |
| 2026-04-23 15:43 | 39.16104 | -27.85068 | 22918 ft | 342 kts | 302° |
| 2026-04-23 15:44 | 39.17350 | -27.87682 | 23424 ft | 344 kts | 302° |
| 2026-04-23 15:44 | 39.18520 | -27.90332 | 23863 ft | 345 kts | 299° |
| 2026-04-23 15:44 | 39.19625 | -27.93075 | 24310 ft | 346 kts | 299° |
| 2026-04-23 15:44 | 39.20730 | -27.95834 | 24765 ft | 346 kts | 298° |
| 2026-04-23 15:45 | 39.21835 | -27.98589 | 25209 ft | 347 kts | 298° |
| 2026-04-23 15:45 | 39.22941 | -28.01359 | 25652 ft | 347 kts | 298° |
| 2026-04-23 15:45 | 39.24045 | -28.04135 | 26077 ft | 348 kts | 298° |
| 2026-04-23 15:45 | 39.25154 | -28.06902 | 26494 ft | 348 kts | 298° |
| 2026-04-23 15:46 | 39.26264 | -28.09688 | 26880 ft | 349 kts | 298° |
| 2026-04-23 15:46 | 39.27376 | -28.12480 | 27277 ft | 350 kts | 298° |
| 2026-04-23 15:46 | 39.28484 | -28.15223 | 27654 ft | 350 kts | 298° |
| 2026-04-23 15:46 | 39.29605 | -28.18024 | 28025 ft | 351 kts | 298° |
| 2026-04-23 15:47 | 39.30724 | -28.20825 | 28385 ft | 352 kts | 298° |
| 2026-04-23 15:47 | 39.31850 | -28.23641 | 28743 ft | 353 kts | 298° |
| 2026-04-23 15:47 | 39.32978 | -28.26466 | 29091 ft | 354 kts | 297° |
| 2026-04-23 15:47 | 39.34098 | -28.29295 | 29428 ft | 355 kts | 297° |
| 2026-04-23 15:48 | 39.35229 | -28.32138 | 29764 ft | 356 kts | 297° |
| 2026-04-23 15:48 | 39.36361 | -28.34981 | 30048 ft | 357 kts | 297° |
| 2026-04-23 15:48 | 39.37483 | -28.37809 | 30301 ft | 359 kts | 297° |
| 2026-04-23 15:48 | 39.38623 | -28.40689 | 30574 ft | 360 kts | 297° |
| 2026-04-23 15:49 | 39.39757 | -28.43574 | 30836 ft | 361 kts | 297° |
| 2026-04-23 15:49 | 39.40902 | -28.46479 | 31083 ft | 363 kts | 297° |
| 2026-04-23 15:49 | 39.42051 | -28.49395 | 31332 ft | 364 kts | 297° |
| 2026-04-23 15:49 | 39.43199 | -28.52319 | 31595 ft | 364 kts | 297° |
| 2026-04-23 15:50 | 39.44329 | -28.55204 | 31880 ft | 364 kts | 297° |
| 2026-04-23 15:50 | 39.45472 | -28.58113 | 32172 ft | 363 kts | 297° |
| 2026-04-23 15:50 | 39.46618 | -28.61025 | 32450 ft | 362 kts | 297° |
| 2026-04-23 15:50 | 39.47754 | -28.63927 | 32723 ft | 362 kts | 297° |
| 2026-04-23 15:51 | 39.48895 | -28.66838 | 32775 ft | 362 kts | 297° |
| 2026-04-23 15:51 | 39.51181 | -28.72650 | 32807 ft | 361 kts | 297° |
| 2026-04-23 15:52 | 39.53445 | -28.78415 | 32783 ft | 361 kts | 297° |
| 2026-04-23 15:52 | 39.55714 | -28.84216 | 32780 ft | 361 kts | 297° |
| 2026-04-23 15:53 | 39.57979 | -28.90034 | 32782 ft | 361 kts | 297° |
| 2026-04-23 15:53 | 39.60219 | -28.95811 | 32755 ft | 361 kts | 297° |
| 2026-04-23 15:54 | 39.62490 | -29.01652 | 32799 ft | 362 kts | 297° |
| 2026-04-23 15:54 | 39.64745 | -29.07475 | 32784 ft | 361 kts | 297° |
| 2026-04-23 15:55 | 39.66996 | -29.13300 | 32772 ft | 361 kts | 297° |
| 2026-04-23 15:55 | 39.69230 | -29.19089 | 32773 ft | 361 kts | 297° |
| 2026-04-23 15:56 | 39.71478 | -29.24931 | 32746 ft | 361 kts | 297° |
| 2026-04-23 15:56 | 39.73727 | -29.30788 | 32804 ft | 363 kts | 296° |
| 2026-04-23 15:57 | 39.75968 | -29.36642 | 32789 ft | 361 kts | 296° |
| 2026-04-23 15:57 | 39.78181 | -29.42435 | 32778 ft | 360 kts | 296° |
| 2026-04-23 15:58 | 39.80415 | -29.48274 | 32780 ft | 360 kts | 296° |
| 2026-04-23 15:58 | 39.82639 | -29.54110 | 32741 ft | 360 kts | 296° |
| 2026-04-23 15:59 | 39.84858 | -29.59942 | 32772 ft | 362 kts | 296° |
| 2026-04-23 15:59 | 39.87091 | -29.65812 | 32782 ft | 361 kts | 296° |
| 2026-04-23 16:00 | 39.89307 | -29.71680 | 32776 ft | 361 kts | 296° |
| 2026-04-23 16:00 | 39.91493 | -29.77505 | 32772 ft | 360 kts | 296° |
| 2026-04-23 16:01 | 39.93716 | -29.83369 | 32747 ft | 361 kts | 296° |
| 2026-04-23 16:01 | 39.95944 | -29.89281 | 32763 ft | 363 kts | 296° |
| 2026-04-23 16:02 | 39.98149 | -29.95136 | 32782 ft | 362 kts | 296° |
| 2026-04-23 16:02 | 40.00366 | -30.01029 | 32769 ft | 361 kts | 295° |
| 2026-04-23 16:03 | 40.02492 | -30.06980 | 32773 ft | 361 kts | 295° |
| 2026-04-23 16:03 | 40.04597 | -30.12886 | 32751 ft | 363 kts | 294° |
| 2026-04-23 16:04 | 40.06727 | -30.18869 | 32767 ft | 364 kts | 294° |
| 2026-04-23 16:04 | 40.08858 | -30.24845 | 32778 ft | 362 kts | 294° |
| 2026-04-23 16:05 | 40.10622 | -30.29798 | 32775 ft | 362 kts | 294° |
| 2026-04-23 16:05 | 40.13083 | -30.36739 | 32767 ft | 362 kts | 294° |
| 2026-04-23 16:06 | 40.15196 | -30.42721 | 32748 ft | 366 kts | 294° |
| 2026-04-23 16:06 | 40.17323 | -30.48731 | 32762 ft | 366 kts | 294° |
| 2026-04-23 16:07 | 40.19446 | -30.54753 | 32780 ft | 363 kts | 294° |
| 2026-04-23 16:07 | 40.21555 | -30.60752 | 32770 ft | 363 kts | 294° |
| 2026-04-23 16:08 | 40.23662 | -30.66765 | 32770 ft | 363 kts | 294° |
| 2026-04-23 16:08 | 40.25764 | -30.72763 | 32748 ft | 367 kts | 293° |
| 2026-04-23 16:09 | 40.27888 | -30.78846 | 32766 ft | 367 kts | 293° |
| 2026-04-23 16:09 | 40.30001 | -30.84908 | 32771 ft | 365 kts | 293° |
| 2026-04-23 16:10 | 40.32095 | -30.90919 | 32769 ft | 365 kts | 293° |
| 2026-04-23 16:10 | 40.34194 | -30.96967 | 32770 ft | 365 kts | 293° |
| 2026-04-23 16:11 | 40.36301 | -31.03045 | 32766 ft | 366 kts | 293° |
| 2026-04-23 16:11 | 40.38401 | -31.09123 | 32764 ft | 366 kts | 293° |
| 2026-04-23 16:12 | 40.40480 | -31.15166 | 32761 ft | 366 kts | 292° |
| 2026-04-23 16:12 | 40.42576 | -31.21261 | 32760 ft | 366 kts | 293° |
| 2026-04-23 16:13 | 40.44675 | -31.27356 | 32764 ft | 366 kts | 293° |
| 2026-04-23 16:13 | 40.47801 | -31.36466 | 32763 ft | 366 kts | 292° |
| 2026-04-23 16:14 | 40.49878 | -31.42556 | 32767 ft | 365 kts | 292° |
| 2026-04-23 16:14 | 40.51939 | -31.48591 | 32766 ft | 365 kts | 292° |
| 2026-04-23 16:15 | 40.54009 | -31.54682 | 32763 ft | 364 kts | 292° |
| 2026-04-23 16:15 | 40.56076 | -31.60765 | 32766 ft | 364 kts | 292° |
| 2026-04-23 16:16 | 40.58141 | -31.66850 | 32761 ft | 364 kts | 292° |
| 2026-04-23 16:16 | 40.60186 | -31.72912 | 32752 ft | 365 kts | 292° |
| 2026-04-23 16:17 | 40.62243 | -31.79016 | 32758 ft | 365 kts | 292° |
| 2026-04-23 16:17 | 40.64305 | -31.85130 | 32761 ft | 365 kts | 292° |
| 2026-04-23 16:18 | 40.66339 | -31.91199 | 32756 ft | 365 kts | 292° |
| 2026-04-23 16:18 | 40.68392 | -31.97320 | 32757 ft | 365 kts | 292° |
| 2026-04-23 16:19 | 40.70436 | -32.03425 | 32763 ft | 364 kts | 292° |
| 2026-04-23 16:19 | 40.72473 | -32.09527 | 32761 ft | 364 kts | 291° |
| 2026-04-23 16:20 | 40.74494 | -32.15593 | 32761 ft | 364 kts | 291° |
| 2026-04-23 16:20 | 40.76524 | -32.21715 | 32760 ft | 364 kts | 291° |
| 2026-04-23 16:21 | 40.78556 | -32.27837 | 32773 ft | 364 kts | 291° |
| 2026-04-23 16:21 | 40.80566 | -32.33919 | 32762 ft | 363 kts | 291° |
| 2026-04-23 16:22 | 40.82586 | -32.40040 | 32738 ft | 366 kts | 291° |
| 2026-04-23 16:22 | 40.84620 | -32.46217 | 32759 ft | 367 kts | 291° |
| 2026-04-23 16:23 | 40.86632 | -32.52352 | 32763 ft | 366 kts | 291° |
| 2026-04-23 16:23 | 40.88657 | -32.58529 | 32768 ft | 367 kts | 291° |
| 2026-04-23 16:24 | 40.90677 | -32.64714 | 32767 ft | 367 kts | 291° |
| 2026-04-23 16:24 | 40.92702 | -32.70909 | 32761 ft | 367 kts | 291° |
| 2026-04-23 16:25 | 40.94707 | -32.77059 | 32765 ft | 367 kts | 290° |
| 2026-04-23 16:25 | 40.96719 | -32.83258 | 32765 ft | 367 kts | 290° |
| 2026-04-23 16:26 | 40.98727 | -32.89457 | 32772 ft | 366 kts | 290° |
| 2026-04-23 16:26 | 41.00730 | -32.95648 | 32763 ft | 366 kts | 290° |
| 2026-04-23 16:27 | 41.02720 | -33.01809 | 32765 ft | 366 kts | 290° |
| 2026-04-23 16:27 | 41.04712 | -33.08014 | 32737 ft | 368 kts | 290° |
| 2026-04-23 16:28 | 41.06721 | -33.14266 | 32761 ft | 369 kts | 290° |
| 2026-04-23 16:28 | 41.08730 | -33.20524 | 32812 ft | 370 kts | 290° |
| 2026-04-23 16:29 | 41.09732 | -33.23669 | 33051 ft | 370 kts | 290° |
| 2026-04-23 16:29 | 41.10731 | -33.26797 | 33364 ft | 368 kts | 290° |
| 2026-04-23 16:29 | 41.11716 | -33.29878 | 33668 ft | 367 kts | 290° |
| 2026-04-23 16:29 | 41.12716 | -33.33004 | 33788 ft | 369 kts | 290° |
| 2026-04-23 16:30 | 41.14717 | -33.39276 | 33782 ft | 369 kts | 290° |
| 2026-04-23 16:30 | 41.16706 | -33.45545 | 33766 ft | 369 kts | 289° |
| 2026-04-23 16:31 | 41.18693 | -33.51821 | 33769 ft | 369 kts | 289° |
| 2026-04-23 16:31 | 41.20666 | -33.58072 | 33766 ft | 370 kts | 289° |
| 2026-04-23 16:32 | 41.22655 | -33.64380 | 33767 ft | 370 kts | 289° |
| 2026-04-23 16:32 | 41.24639 | -33.70681 | 33767 ft | 370 kts | 289° |
| 2026-04-23 16:33 | 41.26620 | -33.76987 | 33743 ft | 372 kts | 289° |
| 2026-04-23 16:33 | 41.28605 | -33.83326 | 33764 ft | 375 kts | 289° |
| 2026-04-23 16:34 | 41.30601 | -33.89726 | 33766 ft | 375 kts | 289° |
| 2026-04-23 16:34 | 41.32600 | -33.96138 | 33767 ft | 375 kts | 289° |
| 2026-04-23 16:35 | 41.34592 | -34.02545 | 33766 ft | 375 kts | 289° |
| 2026-04-23 16:35 | 41.36572 | -34.08922 | 33763 ft | 375 kts | 289° |
| 2026-04-23 16:36 | 41.38562 | -34.15346 | 33767 ft | 375 kts | 289° |
| 2026-04-23 16:36 | 41.40541 | -34.21764 | 33770 ft | 375 kts | 289° |
| 2026-04-23 16:37 | 41.42506 | -34.28155 | 33769 ft | 375 kts | 288° |
| 2026-04-23 16:37 | 41.44481 | -34.34588 | 33769 ft | 374 kts | 289° |
| 2026-04-23 16:38 | 41.46448 | -34.41006 | 33770 ft | 374 kts | 288° |
| 2026-04-23 16:38 | 41.48395 | -34.47371 | 33749 ft | 374 kts | 288° |
| 2026-04-23 16:39 | 41.50357 | -34.53802 | 33766 ft | 375 kts | 288° |
| 2026-04-23 16:39 | 41.52315 | -34.60240 | 33775 ft | 375 kts | 288° |
| 2026-04-23 16:40 | 41.54274 | -34.66693 | 33772 ft | 375 kts | 288° |
| 2026-04-23 16:40 | 41.56212 | -34.73096 | 33769 ft | 375 kts | 288° |
| 2026-04-23 16:41 | 41.58160 | -34.79544 | 33774 ft | 374 kts | 288° |
| 2026-04-23 16:41 | 41.60103 | -34.85994 | 33771 ft | 374 kts | 288° |
| 2026-04-23 16:42 | 41.62047 | -34.92458 | 33770 ft | 374 kts | 288° |
| 2026-04-23 16:42 | 41.63971 | -34.98874 | 33770 ft | 375 kts | 288° |
| 2026-04-23 16:43 | 41.65902 | -35.05338 | 33773 ft | 374 kts | 288° |
| 2026-04-23 16:43 | 41.67834 | -35.11811 | 33775 ft | 375 kts | 288° |
| 2026-04-23 16:44 | 41.69760 | -35.18295 | 33757 ft | 376 kts | 288° |
| 2026-04-23 16:44 | 41.71685 | -35.24775 | 33767 ft | 377 kts | 288° |
| 2026-04-23 16:45 | 41.73617 | -35.31292 | 33769 ft | 377 kts | 288° |
| 2026-04-23 16:45 | 41.75543 | -35.37816 | 33772 ft | 377 kts | 288° |
| 2026-04-23 16:46 | 41.77468 | -35.44351 | 33773 ft | 378 kts | 287° |
| 2026-04-23 16:46 | 41.79380 | -35.50866 | 33770 ft | 378 kts | 287° |
| 2026-04-23 16:47 | 41.81301 | -35.57413 | 33770 ft | 378 kts | 287° |
| 2026-04-23 16:47 | 41.83217 | -35.63963 | 33775 ft | 378 kts | 287° |
| 2026-04-23 16:48 | 41.85131 | -35.70519 | 33778 ft | 378 kts | 287° |
| 2026-04-23 16:48 | 41.87032 | -35.77057 | 33773 ft | 378 kts | 287° |
| 2026-04-23 16:49 | 41.88940 | -35.83638 | 33769 ft | 379 kts | 287° |
| 2026-04-23 16:49 | 41.90846 | -35.90225 | 33748 ft | 379 kts | 287° |
| 2026-04-23 16:50 | 41.92755 | -35.96835 | 33771 ft | 380 kts | 287° |
| 2026-04-23 16:50 | 41.94645 | -36.03408 | 33791 ft | 380 kts | 287° |
| 2026-04-23 16:51 | 41.96549 | -36.10045 | 33775 ft | 380 kts | 287° |
| 2026-04-23 16:51 | 41.98451 | -36.16678 | 33772 ft | 380 kts | 287° |
| 2026-04-23 16:52 | 42.00345 | -36.23313 | 33770 ft | 380 kts | 287° |
| 2026-04-23 16:52 | 42.02235 | -36.29953 | 33771 ft | 380 kts | 287° |
| 2026-04-23 16:53 | 42.04107 | -36.36552 | 33781 ft | 380 kts | 286° |
| 2026-04-23 16:53 | 42.05978 | -36.43203 | 33771 ft | 380 kts | 287° |
| 2026-04-23 16:54 | 42.07862 | -36.49862 | 33774 ft | 380 kts | 286° |
| 2026-04-23 16:54 | 42.09735 | -36.56514 | 33774 ft | 380 kts | 286° |
| 2026-04-23 16:55 | 42.11605 | -36.63169 | 33775 ft | 380 kts | 286° |
| 2026-04-23 16:55 | 42.13458 | -36.69784 | 33784 ft | 380 kts | 286° |
| 2026-04-23 16:56 | 42.15325 | -36.76451 | 33771 ft | 379 kts | 286° |
| 2026-04-23 16:56 | 42.17183 | -36.83105 | 33769 ft | 379 kts | 285° |
| 2026-04-23 16:57 | 42.19037 | -36.89762 | 33770 ft | 379 kts | 285° |
| 2026-04-23 16:57 | 42.20872 | -36.96379 | 33769 ft | 379 kts | 285° |
| 2026-04-23 16:58 | 42.22715 | -37.03055 | 33776 ft | 379 kts | 285° |
| 2026-04-23 16:58 | 42.24553 | -37.09718 | 33767 ft | 379 kts | 285° |
| 2026-04-23 16:59 | 42.26391 | -37.16383 | 33769 ft | 379 kts | 285° |
| 2026-04-23 16:59 | 42.28215 | -37.23006 | 33768 ft | 379 kts | 285° |
| 2026-04-23 17:00 | 42.30040 | -37.29687 | 33765 ft | 379 kts | 285° |
| 2026-04-23 17:00 | 42.31865 | -37.36372 | 33770 ft | 379 kts | 285° |
| 2026-04-23 17:01 | 42.33701 | -37.43096 | 33765 ft | 387 kts | 284° |
| 2026-04-23 17:01 | 42.35570 | -37.49963 | 33775 ft | 390 kts | 284° |
| 2026-04-23 17:02 | 42.37427 | -37.56806 | 33775 ft | 390 kts | 284° |
| 2026-04-23 17:02 | 42.39290 | -37.63715 | 33770 ft | 390 kts | 284° |
| 2026-04-23 17:03 | 42.41154 | -37.70621 | 33777 ft | 392 kts | 284° |
| 2026-04-23 17:03 | 42.43004 | -37.77511 | 33771 ft | 392 kts | 283° |
| 2026-04-23 17:04 | 42.44863 | -37.84453 | 33769 ft | 392 kts | 283° |
| 2026-04-23 17:04 | 42.46712 | -37.91399 | 33770 ft | 392 kts | 283° |
| 2026-04-23 17:05 | 42.48567 | -37.98337 | 33770 ft | 392 kts | 283° |
| 2026-04-23 17:05 | 42.50411 | -38.05282 | 33781 ft | 392 kts | 283° |
| 2026-04-23 17:06 | 42.52239 | -38.12179 | 33773 ft | 392 kts | 283° |
| 2026-04-23 17:06 | 42.54073 | -38.19140 | 33774 ft | 392 kts | 283° |
| 2026-04-23 17:07 | 42.55899 | -38.26097 | 33770 ft | 392 kts | 283° |
| 2026-04-23 17:07 | 42.57731 | -38.33054 | 33769 ft | 392 kts | 283° |
| 2026-04-23 17:08 | 42.59542 | -38.39982 | 33775 ft | 393 kts | 282° |
| 2026-04-23 17:08 | 42.61376 | -38.46981 | 33775 ft | 394 kts | 282° |
| 2026-04-23 17:09 | 42.63199 | -38.54002 | 33766 ft | 394 kts | 282° |
| 2026-04-23 17:09 | 42.65024 | -38.61013 | 33770 ft | 394 kts | 282° |
| 2026-04-23 17:10 | 42.66835 | -38.68034 | 33769 ft | 394 kts | 282° |
| 2026-04-23 17:10 | 42.68636 | -38.75016 | 33772 ft | 395 kts | 282° |
| 2026-04-23 17:11 | 42.70455 | -38.82079 | 33768 ft | 395 kts | 282° |
| 2026-04-23 17:11 | 42.72262 | -38.89138 | 33767 ft | 395 kts | 282° |
| 2026-04-23 17:12 | 42.73766 | -38.95044 | 33756 ft | 401 kts | 282° |
| 2026-04-23 17:12 | 42.75895 | -39.03399 | 33763 ft | 403 kts | 282° |
| 2026-04-23 17:13 | 42.77738 | -39.10628 | 33769 ft | 405 kts | 282° |
| 2026-04-23 17:13 | 42.79580 | -39.17886 | 33767 ft | 405 kts | 282° |
| 2026-04-23 17:14 | 42.81102 | -39.23905 | 33763 ft | 405 kts | 282° |
| 2026-04-23 17:14 | 42.83220 | -39.32337 | 33764 ft | 405 kts | 282° |
| 2026-04-23 17:15 | 42.85037 | -39.39591 | 33781 ft | 405 kts | 281° |
| 2026-04-23 17:15 | 42.86548 | -39.45642 | 33767 ft | 406 kts | 281° |
| 2026-04-23 17:16 | 42.88364 | -39.52923 | 33762 ft | 406 kts | 281° |
| 2026-04-23 17:16 | 42.90480 | -39.61396 | 33764 ft | 406 kts | 281° |
| 2026-04-23 17:17 | 42.91984 | -39.67460 | 33765 ft | 406 kts | 281° |
| 2026-04-23 17:17 | 42.93792 | -39.74749 | 33771 ft | 406 kts | 281° |
| 2026-04-23 17:18 | 42.96498 | -39.85743 | 33761 ft | 407 kts | 281° |
| 2026-04-23 17:19 | 42.98297 | -39.93075 | 33765 ft | 407 kts | 281° |
| 2026-04-23 17:19 | 43.00021 | -40.00375 | 33762 ft | 403 kts | 276° |
| 2026-04-23 17:20 | 43.01148 | -40.07835 | 33759 ft | 401 kts | 274° |
| 2026-04-23 17:21 | 43.03299 | -40.22870 | 33754 ft | 404 kts | 275° |
| 2026-04-23 17:21 | 43.04918 | -40.34190 | 33753 ft | 404 kts | 275° |
| 2026-04-23 17:22 | 43.06527 | -40.45556 | 33754 ft | 411 kts | 276° |
| 2026-04-23 17:23 | 43.08165 | -40.57116 | 33748 ft | 416 kts | 276° |
| 2026-04-23 17:24 | 43.09783 | -40.68722 | 33741 ft | 416 kts | 276° |
| 2026-04-23 17:24 | 43.11406 | -40.80385 | 33754 ft | 416 kts | 276° |
| 2026-04-23 17:25 | 43.13017 | -40.92051 | 33744 ft | 416 kts | 276° |
| 2026-04-23 17:26 | 43.15139 | -41.07596 | 33736 ft | 418 kts | 276° |
| 2026-04-23 17:27 | 43.16728 | -41.19349 | 33736 ft | 418 kts | 276° |
| 2026-04-23 17:27 | 43.17779 | -41.27181 | 33733 ft | 418 kts | 276° |
| 2026-04-23 17:28 | 43.18820 | -41.34968 | 33741 ft | 419 kts | 276° |
| 2026-04-23 17:28 | 43.19865 | -41.42846 | 33730 ft | 420 kts | 276° |
| 2026-04-23 17:29 | 43.20901 | -41.50678 | 33726 ft | 420 kts | 276° |
| 2026-04-23 17:30 | 43.22450 | -41.62477 | 33725 ft | 419 kts | 276° |
| 2026-04-23 17:30 | 43.23985 | -41.74286 | 33725 ft | 419 kts | 275° |
| 2026-04-23 17:31 | 43.24998 | -41.82129 | 33722 ft | 422 kts | 275° |
| 2026-04-23 17:31 | 43.26019 | -41.90067 | 33719 ft | 422 kts | 275° |
| 2026-04-23 17:32 | 43.27029 | -41.97994 | 33718 ft | 422 kts | 275° |
| 2026-04-23 17:32 | 43.28037 | -42.05921 | 33717 ft | 422 kts | 275° |
| 2026-04-23 17:33 | 43.29030 | -42.13798 | 33718 ft | 422 kts | 275° |
| 2026-04-23 17:33 | 43.30029 | -42.21758 | 33724 ft | 424 kts | 275° |
| 2026-04-23 17:34 | 43.31029 | -42.29745 | 33721 ft | 425 kts | 275° |
| 2026-04-23 17:35 | 43.32511 | -42.41716 | 33718 ft | 426 kts | 275° |
| 2026-04-23 17:35 | 43.33989 | -42.53752 | 33716 ft | 426 kts | 275° |
| 2026-04-23 17:36 | 43.34968 | -42.61786 | 33725 ft | 427 kts | 275° |
| 2026-04-23 17:36 | 43.35937 | -42.69778 | 33720 ft | 427 kts | 275° |
| 2026-04-23 17:37 | 43.36906 | -42.77826 | 33734 ft | 427 kts | 275° |
| 2026-04-23 17:38 | 43.38347 | -42.89908 | 33749 ft | 427 kts | 274° |
| 2026-04-23 17:38 | 43.39304 | -42.97963 | 33736 ft | 427 kts | 274° |
| 2026-04-23 17:39 | 43.40249 | -43.05977 | 33745 ft | 428 kts | 274° |
| 2026-04-23 17:39 | 43.41194 | -43.14062 | 33749 ft | 429 kts | 274° |
| 2026-04-23 17:40 | 43.42136 | -43.22154 | 33757 ft | 429 kts | 274° |
| 2026-04-23 17:40 | 43.43073 | -43.30260 | 33754 ft | 428 kts | 274° |
| 2026-04-23 17:41 | 43.43996 | -43.38297 | 33755 ft | 428 kts | 274° |
| 2026-04-23 17:41 | 43.45379 | -43.50453 | 33769 ft | 429 kts | 274° |
| 2026-04-23 17:42 | 43.46757 | -43.62661 | 33774 ft | 431 kts | 274° |
| 2026-04-23 17:43 | 43.47661 | -43.70750 | 33784 ft | 431 kts | 274° |
| 2026-04-23 17:43 | 43.48566 | -43.78897 | 33785 ft | 431 kts | 274° |
| 2026-04-23 17:44 | 43.49468 | -43.87046 | 33808 ft | 431 kts | 274° |
| 2026-04-23 17:44 | 43.50813 | -43.99335 | 33789 ft | 433 kts | 274° |
| 2026-04-23 17:45 | 43.52139 | -44.11585 | 33803 ft | 433 kts | 273° |
| 2026-04-23 17:46 | 43.53461 | -44.23895 | 33809 ft | 433 kts | 273° |
| 2026-04-23 17:46 | 43.54333 | -44.32107 | 33817 ft | 434 kts | 273° |
| 2026-04-23 17:47 | 43.55198 | -44.40303 | 33812 ft | 435 kts | 273° |
| 2026-04-23 17:48 | 43.56492 | -44.52674 | 33813 ft | 435 kts | 273° |
| 2026-04-23 17:48 | 43.57341 | -44.60869 | 33813 ft | 434 kts | 273° |
| 2026-04-23 17:49 | 43.58188 | -44.69103 | 33818 ft | 434 kts | 273° |
| 2026-04-23 17:49 | 43.59031 | -44.77363 | 33827 ft | 435 kts | 273° |
| 2026-04-23 17:50 | 43.59866 | -44.85585 | 33824 ft | 435 kts | 273° |
| 2026-04-23 17:50 | 43.61116 | -44.97994 | 33828 ft | 435 kts | 272° |
| 2026-04-23 17:51 | 43.61938 | -45.06263 | 33830 ft | 435 kts | 272° |
| 2026-04-23 17:52 | 43.63157 | -45.18622 | 33838 ft | 435 kts | 272° |
| 2026-04-23 17:52 | 43.64369 | -45.31053 | 33841 ft | 435 kts | 272° |
| 2026-04-23 17:53 | 43.65559 | -45.43403 | 33863 ft | 434 kts | 272° |
| 2026-04-23 17:54 | 43.66345 | -45.51639 | 33849 ft | 432 kts | 272° |
| 2026-04-23 17:54 | 43.67512 | -45.63999 | 33850 ft | 433 kts | 272° |
| 2026-04-23 17:55 | 43.68671 | -45.76385 | 33860 ft | 433 kts | 272° |
| 2026-04-23 17:56 | 43.69431 | -45.84589 | 33861 ft | 433 kts | 272° |
| 2026-04-23 17:56 | 43.70564 | -45.96976 | 33858 ft | 433 kts | 272° |
| 2026-04-23 17:57 | 43.71304 | -46.05173 | 33879 ft | 433 kts | 272° |
| 2026-04-23 17:58 | 43.72417 | -46.17578 | 33876 ft | 433 kts | 271° |
| 2026-04-23 17:58 | 43.73153 | -46.25844 | 33877 ft | 433 kts | 271° |
| 2026-04-23 17:59 | 43.73876 | -46.34070 | 33882 ft | 433 kts | 271° |
| 2026-04-23 17:59 | 43.74598 | -46.42339 | 33879 ft | 433 kts | 271° |
| 2026-04-23 18:00 | 43.75316 | -46.50620 | 33899 ft | 434 kts | 271° |
| 2026-04-23 18:00 | 43.76028 | -46.58904 | 33894 ft | 434 kts | 271° |
| 2026-04-23 18:01 | 43.76727 | -46.67141 | 33890 ft | 433 kts | 271° |
| 2026-04-23 18:01 | 43.77426 | -46.75418 | 33913 ft | 432 kts | 271° |
| 2026-04-23 18:02 | 43.78116 | -46.83646 | 33905 ft | 430 kts | 271° |
| 2026-04-23 18:02 | 43.78798 | -46.91874 | 33908 ft | 431 kts | 271° |
| 2026-04-23 18:03 | 43.79472 | -47.00130 | 33903 ft | 431 kts | 271° |
| 2026-04-23 18:03 | 43.80140 | -47.08310 | 33902 ft | 431 kts | 271° |
| 2026-04-23 18:04 | 43.80806 | -47.16544 | 33909 ft | 431 kts | 270° |
| 2026-04-23 18:04 | 43.81463 | -47.24779 | 33910 ft | 430 kts | 270° |
| 2026-04-23 18:05 | 43.82116 | -47.33016 | 33932 ft | 431 kts | 270° |
| 2026-04-23 18:05 | 43.82759 | -47.41222 | 33932 ft | 430 kts | 270° |
| 2026-04-23 18:06 | 43.83399 | -47.49449 | 33916 ft | 429 kts | 270° |
| 2026-04-23 18:06 | 43.84032 | -47.57669 | 33918 ft | 429 kts | 270° |
| 2026-04-23 18:07 | 43.84658 | -47.65888 | 33916 ft | 429 kts | 270° |
| 2026-04-23 18:07 | 43.85276 | -47.74065 | 33941 ft | 429 kts | 270° |
| 2026-04-23 18:08 | 43.85793 | -47.80960 | 33935 ft | 431 kts | 270° |
| 2026-04-23 18:08 | 43.86504 | -47.90564 | 33927 ft | 431 kts | 270° |
| 2026-04-23 18:09 | 43.87111 | -47.98824 | 33923 ft | 431 kts | 270° |
| 2026-04-23 18:09 | 43.87710 | -48.07091 | 33944 ft | 429 kts | 270° |
| 2026-04-23 18:10 | 43.88297 | -48.15256 | 33934 ft | 429 kts | 270° |
| 2026-04-23 18:10 | 43.88883 | -48.23475 | 33940 ft | 429 kts | 270° |
| 2026-04-23 18:11 | 43.89461 | -48.31699 | 33936 ft | 429 kts | 270° |
| 2026-04-23 18:11 | 43.90026 | -48.39869 | 33933 ft | 429 kts | 270° |
| 2026-04-23 18:12 | 43.90590 | -48.48109 | 33930 ft | 429 kts | 270° |
| 2026-04-23 18:12 | 43.91151 | -48.56333 | 33938 ft | 429 kts | 270° |
| 2026-04-23 18:13 | 43.91708 | -48.64557 | 33955 ft | 428 kts | 270° |
| 2026-04-23 18:13 | 43.92257 | -48.72717 | 33953 ft | 425 kts | 270° |
| 2026-04-23 18:14 | 43.92794 | -48.80836 | 33932 ft | 423 kts | 270° |
| 2026-04-23 18:14 | 43.93323 | -48.88955 | 33947 ft | 423 kts | 270° |
| 2026-04-23 18:15 | 43.93843 | -48.97074 | 33936 ft | 423 kts | 270° |
| 2026-04-23 18:15 | 43.94360 | -49.05151 | 33952 ft | 422 kts | 270° |
| 2026-04-23 18:16 | 43.94874 | -49.13272 | 33948 ft | 423 kts | 270° |
| 2026-04-23 18:16 | 43.95382 | -49.21397 | 33943 ft | 423 kts | 270° |
| 2026-04-23 18:17 | 43.96133 | -49.33592 | 33943 ft | 423 kts | 270° |
| 2026-04-23 18:17 | 43.96622 | -49.41623 | 33945 ft | 418 kts | 270° |
| 2026-04-23 18:18 | 43.97103 | -49.49671 | 33947 ft | 418 kts | 270° |
| 2026-04-23 18:18 | 43.97580 | -49.57732 | 33946 ft | 418 kts | 270° |
| 2026-04-23 18:19 | 43.98051 | -49.65779 | 33945 ft | 418 kts | 270° |
| 2026-04-23 18:19 | 43.98513 | -49.73771 | 33943 ft | 418 kts | 270° |
| 2026-04-23 18:20 | 43.98974 | -49.81817 | 33944 ft | 418 kts | 270° |
| 2026-04-23 18:20 | 43.99425 | -49.89869 | 33944 ft | 418 kts | 270° |
| 2026-04-23 18:21 | 43.99873 | -49.97916 | 33952 ft | 419 kts | 270° |
| 2026-04-23 18:21 | 44.00306 | -50.05965 | 33944 ft | 417 kts | 270° |
| 2026-04-23 18:22 | 44.00729 | -50.13932 | 33948 ft | 416 kts | 270° |
| 2026-04-23 18:22 | 44.01151 | -50.21951 | 33946 ft | 416 kts | 270° |
| 2026-04-23 18:23 | 44.01768 | -50.33990 | 33954 ft | 417 kts | 269° |
| 2026-04-23 18:24 | 44.02367 | -50.46030 | 33953 ft | 419 kts | 270° |
| 2026-04-23 18:25 | 44.02959 | -50.58129 | 33948 ft | 419 kts | 270° |
| 2026-04-23 18:25 | 44.03348 | -50.66225 | 33945 ft | 419 kts | 270° |
| 2026-04-23 18:26 | 44.03730 | -50.74288 | 33950 ft | 417 kts | 270° |
| 2026-04-23 18:26 | 44.04105 | -50.82277 | 33969 ft | 417 kts | 270° |
| 2026-04-23 18:27 | 44.04491 | -50.90338 | 33950 ft | 418 kts | 270° |
| 2026-04-23 18:27 | 44.04856 | -50.98407 | 33948 ft | 418 kts | 270° |
| 2026-04-23 18:28 | 44.05223 | -51.06490 | 33946 ft | 418 kts | 270° |
| 2026-04-23 18:28 | 44.05556 | -51.14507 | 33947 ft | 418 kts | 270° |
| 2026-04-23 18:29 | 44.05892 | -51.22577 | 33949 ft | 418 kts | 270° |
| 2026-04-23 18:29 | 44.06236 | -51.30659 | 33959 ft | 420 kts | 270° |
| 2026-04-23 18:30 | 44.06582 | -51.38788 | 33952 ft | 421 kts | 270° |
| 2026-04-23 18:30 | 44.06926 | -51.46851 | 33953 ft | 421 kts | 270° |
| 2026-04-23 18:31 | 44.07254 | -51.54968 | 33953 ft | 421 kts | 270° |
| 2026-04-23 18:31 | 44.07569 | -51.63089 | 33950 ft | 421 kts | 270° |
| 2026-04-23 18:32 | 44.07887 | -51.71232 | 33968 ft | 422 kts | 270° |
| 2026-04-23 18:32 | 44.08203 | -51.79337 | 33956 ft | 423 kts | 270° |
| 2026-04-23 18:33 | 44.08512 | -51.87505 | 33952 ft | 423 kts | 270° |
| 2026-04-23 18:33 | 44.08814 | -51.95673 | 33952 ft | 423 kts | 269° |
| 2026-04-23 18:34 | 44.09108 | -52.03825 | 33952 ft | 421 kts | 270° |
| 2026-04-23 18:34 | 44.09403 | -52.11899 | 33951 ft | 420 kts | 270° |
| 2026-04-23 18:35 | 44.09682 | -52.20023 | 33960 ft | 422 kts | 270° |
| 2026-04-23 18:35 | 44.09960 | -52.28176 | 33952 ft | 422 kts | 270° |
| 2026-04-23 18:36 | 44.10230 | -52.36332 | 33955 ft | 422 kts | 270° |
| 2026-04-23 18:36 | 44.10499 | -52.44447 | 33950 ft | 422 kts | 270° |
| 2026-04-23 18:37 | 44.10762 | -52.52604 | 33959 ft | 422 kts | 270° |
| 2026-04-23 18:37 | 44.11019 | -52.60774 | 33959 ft | 422 kts | 270° |
| 2026-04-23 18:38 | 44.11273 | -52.68932 | 33951 ft | 420 kts | 270° |
| 2026-04-23 18:38 | 44.11516 | -52.76985 | 33946 ft | 419 kts | 270° |
| 2026-04-23 18:39 | 44.11757 | -52.85090 | 33962 ft | 419 kts | 270° |
| 2026-04-23 18:39 | 44.12026 | -52.93199 | 33949 ft | 419 kts | 270° |
| 2026-04-23 18:40 | 44.12279 | -53.01291 | 33953 ft | 419 kts | 270° |
| 2026-04-23 18:40 | 44.12527 | -53.09407 | 33957 ft | 422 kts | 270° |
| 2026-04-23 18:41 | 44.12770 | -53.17514 | 33947 ft | 422 kts | 270° |
| 2026-04-23 18:41 | 44.13013 | -53.25691 | 33948 ft | 422 kts | 270° |
| 2026-04-23 18:42 | 44.13250 | -53.33854 | 33946 ft | 421 kts | 270° |
| 2026-04-23 18:42 | 44.13483 | -53.41957 | 33946 ft | 419 kts | 270° |
| 2026-04-23 18:43 | 44.13700 | -53.50054 | 33951 ft | 420 kts | 270° |
| 2026-04-23 18:43 | 44.13919 | -53.58129 | 33944 ft | 421 kts | 270° |
| 2026-04-23 18:44 | 44.14128 | -53.66277 | 33940 ft | 421 kts | 269° |
| 2026-04-23 18:44 | 44.14333 | -53.74408 | 33941 ft | 420 kts | 269° |
| 2026-04-23 18:45 | 44.14538 | -53.82540 | 33943 ft | 420 kts | 269° |
| 2026-04-23 18:45 | 44.14731 | -53.90618 | 33941 ft | 420 kts | 269° |
| 2026-04-23 18:46 | 44.14923 | -53.98764 | 33942 ft | 420 kts | 269° |
| 2026-04-23 18:46 | 44.15101 | -54.06854 | 33940 ft | 417 kts | 269° |
| 2026-04-23 18:47 | 44.15283 | -54.14932 | 33941 ft | 417 kts | 269° |
| 2026-04-23 18:47 | 44.15454 | -54.22944 | 33939 ft | 417 kts | 269° |
| 2026-04-23 18:48 | 44.15617 | -54.31007 | 33938 ft | 417 kts | 269° |
| 2026-04-23 18:48 | 44.15775 | -54.39090 | 33946 ft | 418 kts | 269° |
| 2026-04-23 18:49 | 44.15917 | -54.47139 | 33936 ft | 419 kts | 269° |
| 2026-04-23 18:49 | 44.16070 | -54.55246 | 33937 ft | 419 kts | 269° |
| 2026-04-23 18:50 | 44.16191 | -54.61991 | 33933 ft | 419 kts | 269° |
| 2026-04-23 18:50 | 44.16348 | -54.71463 | 33930 ft | 417 kts | 269° |
| 2026-04-23 18:51 | 44.16483 | -54.79490 | 33929 ft | 417 kts | 269° |
| 2026-04-23 18:51 | 44.16595 | -54.87575 | 33928 ft | 418 kts | 267° |
| 2026-04-23 18:52 | 44.16130 | -54.95587 | 33925 ft | 417 kts | 263° |
| 2026-04-23 18:52 | 44.15562 | -55.03638 | 33926 ft | 417 kts | 263° |
| 2026-04-23 18:53 | 44.15002 | -55.11676 | 33925 ft | 417 kts | 262° |
| 2026-04-23 18:53 | 44.14410 | -55.19709 | 33923 ft | 417 kts | 262° |
| 2026-04-23 18:54 | 44.13825 | -55.27684 | 33924 ft | 416 kts | 262° |
| 2026-04-23 18:54 | 44.13242 | -55.35704 | 33925 ft | 416 kts | 262° |
| 2026-04-23 18:55 | 44.12658 | -55.43719 | 33918 ft | 416 kts | 262° |
| 2026-04-23 18:55 | 44.12065 | -55.51747 | 33917 ft | 416 kts | 262° |
| 2026-04-23 18:56 | 44.11569 | -55.58399 | 33917 ft | 416 kts | 262° |
| 2026-04-23 18:56 | 44.10860 | -55.67730 | 33919 ft | 417 kts | 262° |
| 2026-04-23 18:57 | 44.10243 | -55.75740 | 33916 ft | 416 kts | 262° |
| 2026-04-23 18:57 | 44.09631 | -55.83745 | 33921 ft | 417 kts | 262° |
| 2026-04-23 18:58 | 44.09016 | -55.91722 | 33910 ft | 417 kts | 262° |
| 2026-04-23 18:58 | 44.08380 | -55.99736 | 33913 ft | 417 kts | 262° |
| 2026-04-23 18:59 | 44.07748 | -56.07750 | 33914 ft | 417 kts | 262° |
| 2026-04-23 18:59 | 44.07109 | -56.15722 | 33907 ft | 417 kts | 262° |
| 2026-04-23 19:00 | 44.06459 | -56.23731 | 33905 ft | 417 kts | 262° |
| 2026-04-23 19:00 | 44.05803 | -56.31733 | 33923 ft | 417 kts | 262° |
| 2026-04-23 19:01 | 44.05146 | -56.39707 | 33913 ft | 418 kts | 262° |
| 2026-04-23 19:01 | 44.04478 | -56.47736 | 33908 ft | 418 kts | 262° |
| 2026-04-23 19:02 | 44.03919 | -56.54403 | 33903 ft | 418 kts | 262° |
| 2026-04-23 19:02 | 44.03130 | -56.63735 | 33898 ft | 418 kts | 262° |
| 2026-04-23 19:03 | 44.02449 | -56.71745 | 33906 ft | 418 kts | 262° |
| 2026-04-23 19:03 | 44.01764 | -56.79712 | 33896 ft | 418 kts | 261° |
| 2026-04-23 19:04 | 44.01064 | -56.87738 | 33899 ft | 419 kts | 262° |
| 2026-04-23 19:04 | 44.00361 | -56.95758 | 33894 ft | 417 kts | 262° |
| 2026-04-23 19:05 | 43.99830 | -57.03787 | 33897 ft | 418 kts | 265° |
| 2026-04-23 19:05 | 43.99498 | -57.11809 | 33891 ft | 418 kts | 265° |
| 2026-04-23 19:06 | 43.99160 | -57.19871 | 33892 ft | 418 kts | 265° |
| 2026-04-23 19:06 | 43.98817 | -57.27946 | 33913 ft | 418 kts | 265° |
| 2026-04-23 19:07 | 43.98468 | -57.35998 | 33891 ft | 421 kts | 265° |
| 2026-04-23 19:07 | 43.98111 | -57.44111 | 33890 ft | 421 kts | 264° |
| 2026-04-23 19:08 | 43.97747 | -57.52237 | 33889 ft | 421 kts | 264° |
| 2026-04-23 19:08 | 43.97382 | -57.60294 | 33886 ft | 421 kts | 264° |
| 2026-04-23 19:09 | 43.97007 | -57.68405 | 33886 ft | 421 kts | 264° |
| 2026-04-23 19:09 | 43.96621 | -57.76529 | 33893 ft | 422 kts | 264° |
| 2026-04-23 19:10 | 43.96236 | -57.84660 | 33885 ft | 423 kts | 264° |
| 2026-04-23 19:10 | 43.95851 | -57.92741 | 33884 ft | 423 kts | 264° |
| 2026-04-23 19:11 | 43.95455 | -58.00889 | 33882 ft | 423 kts | 264° |
| 2026-04-23 19:11 | 43.95054 | -58.09009 | 33877 ft | 420 kts | 264° |
| 2026-04-23 19:12 | 43.94716 | -58.15740 | 33878 ft | 420 kts | 264° |
| 2026-04-23 19:12 | 43.94233 | -58.25159 | 33884 ft | 422 kts | 264° |
| 2026-04-23 19:13 | 43.93809 | -58.33287 | 33876 ft | 423 kts | 264° |
| 2026-04-23 19:13 | 43.93381 | -58.41440 | 33873 ft | 423 kts | 264° |
| 2026-04-23 19:14 | 43.92951 | -58.49526 | 33872 ft | 423 kts | 264° |
| 2026-04-23 19:14 | 43.92510 | -58.57679 | 33870 ft | 423 kts | 264° |
| 2026-04-23 19:15 | 43.92060 | -58.65814 | 33877 ft | 422 kts | 264° |
| 2026-04-23 19:15 | 43.91590 | -58.73867 | 33874 ft | 421 kts | 263° |
| 2026-04-23 19:16 | 43.91127 | -58.81958 | 33871 ft | 421 kts | 264° |
| 2026-04-23 19:16 | 43.90669 | -58.90063 | 33869 ft | 421 kts | 264° |
| 2026-04-23 19:17 | 43.89981 | -59.02151 | 33866 ft | 421 kts | 263° |
| 2026-04-23 19:17 | 43.89506 | -59.10251 | 33867 ft | 421 kts | 263° |
| 2026-04-23 19:18 | 43.89024 | -59.18361 | 33871 ft | 423 kts | 264° |
| 2026-04-23 19:18 | 43.88552 | -59.26455 | 33868 ft | 423 kts | 263° |
| 2026-04-23 19:19 | 43.87790 | -59.38613 | 33866 ft | 422 kts | 263° |
| 2026-04-23 19:20 | 43.87032 | -59.50716 | 33874 ft | 422 kts | 263° |
| 2026-04-23 19:20 | 43.86523 | -59.58831 | 33876 ft | 422 kts | 263° |
| 2026-04-23 19:21 | 43.85749 | -59.70985 | 33875 ft | 425 kts | 263° |
| 2026-04-23 19:22 | 43.85228 | -59.79146 | 33873 ft | 425 kts | 263° |
| 2026-04-23 19:22 | 43.84417 | -59.91357 | 33878 ft | 424 kts | 263° |
| 2026-04-23 19:23 | 43.83877 | -59.99481 | 33877 ft | 424 kts | 263° |
| 2026-04-23 19:24 | 43.83077 | -60.11640 | 33883 ft | 426 kts | 263° |
| 2026-04-23 19:24 | 43.82246 | -60.23890 | 33875 ft | 426 kts | 263° |
| 2026-04-23 19:25 | 43.81097 | -60.40167 | 33874 ft | 426 kts | 263° |
| 2026-04-23 19:26 | 43.80232 | -60.52357 | 33877 ft | 426 kts | 263° |
| 2026-04-23 19:27 | 43.78740 | -60.72792 | 33865 ft | 427 kts | 263° |
| 2026-04-23 19:28 | 43.77541 | -60.89073 | 33861 ft | 427 kts | 263° |
| 2026-04-23 19:29 | 43.76614 | -61.01335 | 33864 ft | 428 kts | 263° |
| 2026-04-23 19:30 | 43.75682 | -61.13550 | 33860 ft | 427 kts | 263° |
| 2026-04-23 19:31 | 43.74730 | -61.25806 | 33862 ft | 427 kts | 263° |
| 2026-04-23 19:31 | 43.74090 | -61.33984 | 33860 ft | 427 kts | 263° |
| 2026-04-23 19:32 | 43.73442 | -61.42105 | 33873 ft | 427 kts | 263° |
| 2026-04-23 19:32 | 43.72798 | -61.50288 | 33859 ft | 429 kts | 263° |
| 2026-04-23 19:33 | 43.72134 | -61.58437 | 33862 ft | 429 kts | 263° |
| 2026-04-23 19:33 | 43.71133 | -61.70710 | 33855 ft | 427 kts | 264° |
| 2026-04-23 19:34 | 43.70460 | -61.78855 | 33854 ft | 426 kts | 263° |
| 2026-04-23 19:35 | 43.69454 | -61.91018 | 33857 ft | 427 kts | 264° |
| 2026-04-23 19:35 | 43.68754 | -61.99173 | 33859 ft | 428 kts | 264° |
| 2026-04-23 19:36 | 43.68060 | -62.07345 | 33859 ft | 428 kts | 264° |
| 2026-04-23 19:36 | 43.67375 | -62.15462 | 33863 ft | 428 kts | 264° |
| 2026-04-23 19:37 | 43.66667 | -62.23626 | 33854 ft | 427 kts | 264° |
| 2026-04-23 19:37 | 43.65950 | -62.31761 | 33853 ft | 426 kts | 264° |
| 2026-04-23 19:38 | 43.65241 | -62.39855 | 33853 ft | 428 kts | 264° |
| 2026-04-23 19:38 | 43.64511 | -62.48001 | 33857 ft | 428 kts | 264° |
| 2026-04-23 19:39 | 43.63773 | -62.56145 | 33856 ft | 428 kts | 264° |
| 2026-04-23 19:39 | 43.63043 | -62.64303 | 33861 ft | 428 kts | 264° |
| 2026-04-23 19:40 | 43.62307 | -62.72391 | 33855 ft | 428 kts | 264° |
| 2026-04-23 19:40 | 43.61570 | -62.80533 | 33854 ft | 428 kts | 264° |
| 2026-04-23 19:41 | 43.60802 | -62.88679 | 33856 ft | 427 kts | 264° |
| 2026-04-23 19:41 | 43.60042 | -62.96808 | 33849 ft | 427 kts | 264° |
| 2026-04-23 19:42 | 43.59284 | -63.04894 | 33852 ft | 427 kts | 264° |
| 2026-04-23 19:42 | 43.58522 | -63.13034 | 33858 ft | 427 kts | 264° |
| 2026-04-23 19:43 | 43.57749 | -63.21103 | 33848 ft | 427 kts | 264° |
| 2026-04-23 19:43 | 43.56965 | -63.29223 | 33853 ft | 427 kts | 264° |
| 2026-04-23 19:44 | 43.56172 | -63.37356 | 33853 ft | 427 kts | 264° |
| 2026-04-23 19:44 | 43.55386 | -63.45474 | 33855 ft | 427 kts | 264° |
| 2026-04-23 19:45 | 43.54593 | -63.53549 | 33849 ft | 427 kts | 264° |
| 2026-04-23 19:45 | 43.53781 | -63.61662 | 33856 ft | 427 kts | 264° |
| 2026-04-23 19:46 | 43.52978 | -63.69779 | 33853 ft | 426 kts | 264° |
| 2026-04-23 19:46 | 43.52173 | -63.77799 | 33852 ft | 425 kts | 264° |
| 2026-04-23 19:47 | 43.51495 | -63.84514 | 33851 ft | 426 kts | 264° |
| 2026-04-23 19:47 | 43.50533 | -63.93956 | 33858 ft | 426 kts | 264° |
| 2026-04-23 19:48 | 43.49715 | -64.01974 | 33858 ft | 424 kts | 264° |
| 2026-04-23 19:48 | 43.48877 | -64.10032 | 33859 ft | 425 kts | 264° |
| 2026-04-23 19:49 | 43.48041 | -64.18077 | 33855 ft | 425 kts | 264° |
| 2026-04-23 19:49 | 43.47200 | -64.26122 | 33863 ft | 425 kts | 264° |
| 2026-04-23 19:50 | 43.46363 | -64.34127 | 33861 ft | 425 kts | 264° |
| 2026-04-23 19:50 | 43.45515 | -64.42166 | 33865 ft | 425 kts | 264° |
| 2026-04-23 19:51 | 43.44635 | -64.50214 | 33871 ft | 425 kts | 264° |
| 2026-04-23 19:51 | 43.43777 | -64.58191 | 33852 ft | 423 kts | 264° |
| 2026-04-23 19:52 | 43.43055 | -64.64875 | 33864 ft | 424 kts | 265° |
| 2026-04-23 19:52 | 43.42046 | -64.74264 | 33865 ft | 424 kts | 265° |
| 2026-04-23 19:53 | 43.41160 | -64.82235 | 33864 ft | 425 kts | 264° |
| 2026-04-23 19:53 | 43.40264 | -64.90272 | 33861 ft | 425 kts | 264° |
| 2026-04-23 19:54 | 43.39371 | -64.98294 | 33861 ft | 425 kts | 264° |
| 2026-04-23 19:54 | 43.38480 | -65.06276 | 33858 ft | 425 kts | 265° |
| 2026-04-23 19:55 | 43.37571 | -65.14314 | 33850 ft | 424 kts | 265° |
| 2026-04-23 19:55 | 43.36656 | -65.22267 | 33859 ft | 424 kts | 265° |
| 2026-04-23 19:56 | 43.35740 | -65.30273 | 33855 ft | 424 kts | 265° |
| 2026-04-23 19:56 | 43.34823 | -65.38265 | 33851 ft | 424 kts | 265° |
| 2026-04-23 19:57 | 43.33904 | -65.46256 | 33852 ft | 424 kts | 265° |
| 2026-04-23 19:57 | 43.33127 | -65.52903 | 33850 ft | 424 kts | 265° |
| 2026-04-23 19:58 | 43.32047 | -65.62186 | 33852 ft | 423 kts | 265° |
| 2026-04-23 19:58 | 43.31109 | -65.70174 | 33837 ft | 423 kts | 265° |
| 2026-04-23 19:59 | 43.30152 | -65.78107 | 33849 ft | 421 kts | 265° |
| 2026-04-23 19:59 | 43.29221 | -65.85993 | 33848 ft | 421 kts | 265° |
| 2026-04-23 20:00 | 43.28277 | -65.93916 | 33848 ft | 421 kts | 265° |
| 2026-04-23 20:00 | 43.27316 | -66.01836 | 33851 ft | 421 kts | 265° |
| 2026-04-23 20:01 | 43.26353 | -66.09715 | 33848 ft | 421 kts | 265° |
| 2026-04-23 20:01 | 43.25392 | -66.17636 | 33847 ft | 421 kts | 265° |
| 2026-04-23 20:02 | 43.24411 | -66.25566 | 33846 ft | 421 kts | 265° |
| 2026-04-23 20:02 | 43.23594 | -66.32133 | 33838 ft | 419 kts | 265° |
| 2026-04-23 20:03 | 43.22457 | -66.41280 | 33835 ft | 419 kts | 266° |
| 2026-04-23 20:03 | 43.21473 | -66.49142 | 33840 ft | 419 kts | 266° |
| 2026-04-23 20:04 | 43.20653 | -66.55683 | 33845 ft | 419 kts | 266° |
| 2026-04-23 20:04 | 43.19493 | -66.64826 | 33840 ft | 419 kts | 265° |
| 2026-04-23 20:05 | 43.18656 | -66.71364 | 33829 ft | 419 kts | 266° |
| 2026-04-23 20:05 | 43.17661 | -66.79225 | 33818 ft | 418 kts | 265° |
| 2026-04-23 20:06 | 43.16483 | -66.88309 | 33822 ft | 413 kts | 266° |
| 2026-04-23 20:06 | 43.15645 | -66.94747 | 33823 ft | 413 kts | 266° |
| 2026-04-23 20:07 | 43.14609 | -67.02484 | 33823 ft | 414 kts | 265° |
| 2026-04-23 20:07 | 43.13280 | -67.11485 | 33826 ft | 414 kts | 265° |
| 2026-04-23 20:08 | 43.12327 | -67.17914 | 33825 ft | 414 kts | 265° |
| 2026-04-23 20:08 | 43.11172 | -67.25651 | 33812 ft | 414 kts | 265° |
| 2026-04-23 20:09 | 43.10013 | -67.33371 | 33822 ft | 414 kts | 265° |
| 2026-04-23 20:09 | 43.08855 | -67.41021 | 33804 ft | 412 kts | 266° |
| 2026-04-23 20:10 | 43.07701 | -67.48649 | 33826 ft | 409 kts | 266° |
| 2026-04-23 20:10 | 43.06552 | -67.56266 | 33829 ft | 409 kts | 266° |
| 2026-04-23 20:11 | 43.05388 | -67.63896 | 33827 ft | 410 kts | 266° |
| 2026-04-23 20:11 | 43.04197 | -67.71512 | 33828 ft | 410 kts | 266° |
| 2026-04-23 20:12 | 43.03024 | -67.79076 | 33830 ft | 410 kts | 266° |
| 2026-04-23 20:12 | 43.01845 | -67.86692 | 33833 ft | 410 kts | 266° |
| 2026-04-23 20:13 | 43.00669 | -67.94324 | 33811 ft | 409 kts | 266° |
| 2026-04-23 20:13 | 42.99481 | -68.01892 | 33824 ft | 408 kts | 266° |
| 2026-04-23 20:14 | 42.98300 | -68.09420 | 33830 ft | 408 kts | 266° |
| 2026-04-23 20:14 | 42.97106 | -68.16975 | 33827 ft | 405 kts | 267° |
| 2026-04-23 20:15 | 42.95914 | -68.24495 | 33834 ft | 405 kts | 267° |
| 2026-04-23 20:15 | 42.94726 | -68.31976 | 33840 ft | 405 kts | 267° |
| 2026-04-23 20:16 | 42.93524 | -68.39502 | 33839 ft | 405 kts | 267° |
| 2026-04-23 20:16 | 42.92321 | -68.47004 | 33829 ft | 405 kts | 267° |
| 2026-04-23 20:17 | 42.91125 | -68.54425 | 33806 ft | 402 kts | 268° |
| 2026-04-23 20:17 | 42.89926 | -68.61821 | 33838 ft | 398 kts | 268° |
| 2026-04-23 20:18 | 42.88723 | -68.69207 | 33845 ft | 399 kts | 268° |
| 2026-04-23 20:18 | 42.87525 | -68.76547 | 33845 ft | 399 kts | 268° |
| 2026-04-23 20:19 | 42.86318 | -68.83925 | 33841 ft | 399 kts | 268° |
| 2026-04-23 20:19 | 42.85108 | -68.91251 | 33837 ft | 396 kts | 268° |
| 2026-04-23 20:20 | 42.83898 | -68.98573 | 33848 ft | 396 kts | 268° |
| 2026-04-23 20:20 | 42.82681 | -69.05895 | 33851 ft | 396 kts | 268° |
| 2026-04-23 20:21 | 42.81461 | -69.13228 | 33855 ft | 397 kts | 268° |
| 2026-04-23 20:21 | 42.80241 | -69.20499 | 33827 ft | 396 kts | 269° |
| 2026-04-23 20:22 | 42.79016 | -69.27797 | 33850 ft | 395 kts | 269° |
| 2026-04-23 20:22 | 42.77778 | -69.35104 | 33853 ft | 396 kts | 269° |
| 2026-04-23 20:23 | 42.76549 | -69.42398 | 33854 ft | 396 kts | 269° |
| 2026-04-23 20:23 | 42.75302 | -69.49654 | 33855 ft | 396 kts | 269° |
| 2026-04-23 20:24 | 42.74052 | -69.56945 | 33817 ft | 393 kts | 270° |
| 2026-04-23 20:24 | 42.72827 | -69.64104 | 33853 ft | 390 kts | 270° |
| 2026-04-23 20:25 | 42.71594 | -69.71281 | 33858 ft | 390 kts | 270° |
| 2026-04-23 20:25 | 42.70356 | -69.78469 | 33843 ft | 390 kts | 270° |
| 2026-04-23 20:26 | 42.69112 | -69.85645 | 33861 ft | 390 kts | 270° |
| 2026-04-23 20:26 | 42.67867 | -69.92770 | 33845 ft | 389 kts | 271° |
| 2026-04-23 20:27 | 42.66615 | -69.99914 | 33860 ft | 389 kts | 271° |
| 2026-04-23 20:27 | 42.65362 | -70.07059 | 33834 ft | 389 kts | 271° |
| 2026-04-23 20:27 | 42.64508 | -70.10582 | 33843 ft | 408 kts | 261° |
| 2026-04-23 20:28 | 42.63306 | -70.14082 | 33856 ft | 411 kts | 260° |
| 2026-04-23 20:28 | 42.60851 | -70.21081 | 33819 ft | 410 kts | 261° |
| 2026-04-23 20:28 | 42.59715 | -70.24592 | 33838 ft | 398 kts | 266° |
| 2026-04-23 20:29 | 42.58816 | -70.28127 | 33854 ft | 395 kts | 268° |
| 2026-04-23 20:29 | 42.57077 | -70.35200 | 33861 ft | 396 kts | 268° |
| 2026-04-23 20:30 | 42.55310 | -70.42223 | 33861 ft | 396 kts | 267° |
| 2026-04-23 20:30 | 42.52616 | -70.52832 | 33835 ft | 396 kts | 268° |
| 2026-04-23 20:31 | 42.50990 | -70.59910 | 33831 ft | 393 kts | 270° |
| 2026-04-23 20:31 | 42.49384 | -70.66962 | 33849 ft | 394 kts | 269° |
| 2026-04-23 20:32 | 42.47746 | -70.74052 | 33852 ft | 395 kts | 269° |
| 2026-04-23 20:32 | 42.46016 | -70.81150 | 33845 ft | 409 kts | 262° |
| 2026-04-23 20:33 | 42.44442 | -70.84490 | 33854 ft | 446 kts | 245° |
| 2026-04-23 20:33 | 42.42033 | -70.87382 | 33859 ft | 481 kts | 228° |
| 2026-04-23 20:33 | 42.38968 | -70.89458 | 33789 ft | 511 kts | 211° |
| 2026-04-23 20:33 | 42.35426 | -70.90542 | 33843 ft | 528 kts | 198° |
| 2026-04-23 20:34 | 42.28263 | -70.92217 | 33861 ft | 519 kts | 201° |
| 2026-04-23 20:34 | 42.21191 | -70.94017 | 33820 ft | 516 kts | 201° |
| 2026-04-23 20:35 | 42.14197 | -70.95792 | 33862 ft | 516 kts | 201° |
| 2026-04-23 20:35 | 42.07138 | -70.97581 | 33868 ft | 520 kts | 201° |